Time;durP1;ratioP1;P1;durP2;ratioP2;P2;SDS_P1;SDS_P2;PMS_P1;PMS_P2;Temp;Humidity;BMP_temperature;BMP_pressure;BME280_temperature;BME280_humidity;BME280_pressure;Samples;Min_cycle;Max_cycle;Signal;HPM_P1;HPM_P2
2022/05/04 00:02:01;;;;;;;13.20;4.85;;;9.40;99.90;;;;;;4948806;28;39612;-76
2022/05/04 00:04:27;;;;;;;10.30;4.87;;;9.30;99.90;;;;;;4968681;28;47886;-76
2022/05/04 00:06:53;;;;;;;10.87;4.50;;;9.30;99.90;;;;;;4971217;28;38341;-76
2022/05/04 00:09:22;;;;;;;15.32;5.65;;;9.20;99.90;;;;;;4956675;28;37254;-75
2022/05/04 00:11:48;;;;;;;13.00;4.77;;;9.20;99.90;;;;;;4974969;28;38197;-76
2022/05/04 00:14:15;;;;;;;9.63;4.27;;;9.10;99.90;;;;;;4952308;28;39577;-75
2022/05/04 00:16:41;;;;;;;14.90;4.65;;;9.10;99.90;;;;;;4951145;28;37356;-76
2022/05/04 00:19:07;;;;;;;12.70;5.20;;;9.10;99.90;;;;;;4975451;28;37796;-75
2022/05/04 00:21:33;;;;;;;14.85;5.15;;;9.10;99.90;;;;;;4955814;28;40553;-75
2022/05/04 00:24:00;;;;;;;12.60;4.50;;;9.10;99.90;;;;;;4961379;28;38725;-75
2022/05/04 00:26:26;;;;;;;12.77;4.90;;;9.00;99.90;;;;;;4978989;28;39288;-75
2022/05/04 00:28:52;;;;;;;10.97;4.33;;;9.00;99.90;;;;;;4959017;28;36983;-76
2022/05/04 00:31:18;;;;;;;9.83;4.00;;;9.00;99.90;;;;;;4973520;28;38609;-75
2022/05/04 00:33:44;;;;;;;12.40;4.63;;;9.00;99.90;;;;;;4973039;28;37601;-75
2022/05/04 00:36:10;;;;;;;10.60;4.17;;;9.00;99.90;;;;;;4956983;28;38847;-75
2022/05/04 00:38:37;;;;;;;11.47;3.87;;;8.90;99.90;;;;;;4957326;28;36925;-74
2022/05/04 00:41:03;;;;;;;14.50;4.47;;;8.90;99.90;;;;;;4958043;28;40887;-75
2022/05/04 00:43:30;;;;;;;9.93;4.13;;;8.80;99.90;;;;;;4963626;28;39414;-75
2022/05/04 00:45:56;;;;;;;8.20;3.87;;;8.70;99.90;;;;;;4973257;28;38646;-75
2022/05/04 00:48:22;;;;;;;11.17;3.33;;;8.70;99.90;;;;;;4976537;28;36916;-75
2022/05/04 00:50:49;;;;;;;8.53;3.20;;;8.70;99.90;;;;;;4962709;28;40143;-75
2022/05/04 00:53:17;;;;;;;7.20;3.70;;;8.70;99.90;;;;;;4956075;28;40629;-75
2022/05/04 00:55:47;;;;;;;12.63;4.27;;;8.70;99.90;;;;;;4958473;28;39393;-76
2022/05/04 01:01:05;;;;;;;13.57;4.13;;;8.70;99.90;;;;;;4973375;28;40033;-75
2022/05/04 01:03:31;;;;;;;11.40;3.60;;;8.80;99.90;;;;;;4971042;28;38398;-74
2022/05/04 01:06:00;;;;;;;13.30;3.70;;;8.80;99.90;;;;;;4972897;28;39187;-75
2022/05/04 01:08:26;;;;;;;8.43;3.67;;;8.80;99.90;;;;;;4946513;28;37651;-74
2022/05/04 01:10:52;;;;;;;11.00;3.27;;;8.80;99.90;;;;;;4957710;28;37220;-76
2022/05/04 01:13:20;;;;;;;8.93;3.30;;;8.80;99.90;;;;;;4958841;28;37468;-75
2022/05/04 01:15:50;;;;;;;9.60;3.70;;;8.80;99.90;;;;;;4961371;28;37785;-75
2022/05/04 01:18:16;;;;;;;8.23;3.47;;;8.80;99.90;;;;;;4981904;28;37830;-75
2022/05/04 01:20:43;;;;;;;7.30;3.30;;;8.80;99.90;;;;;;4960676;28;39382;-76
2022/05/04 01:23:09;;;;;;;10.83;3.70;;;8.80;99.90;;;;;;4962297;28;38581;-75
2022/05/04 01:25:35;;;;;;;12.37;4.20;;;8.70;99.90;;;;;;4961960;28;38602;-75
2022/05/04 01:28:02;;;;;;;12.30;3.93;;;8.70;99.90;;;;;;4958563;28;36900;-75
2022/05/04 01:30:30;;;;;;;9.40;3.87;;;8.60;99.90;;;;;;4974310;28;38473;-75
2022/05/04 01:33:03;;;;;;;9.27;3.17;;;8.60;99.90;;;;;;4973899;28;38610;-76
2022/05/04 01:35:29;;;;;;;12.43;3.77;;;8.60;99.90;;;;;;4973191;28;48911;-76
2022/05/04 01:37:55;;;;;;;11.90;3.70;;;8.60;99.90;;;;;;4984714;28;37478;-76
2022/05/04 01:40:22;;;;;;;8.30;4.07;;;8.50;99.90;;;;;;4974299;28;38706;-75
2022/05/04 01:42:48;;;;;;;9.93;3.33;;;8.40;99.90;;;;;;4980151;28;39703;-76
2022/05/04 01:45:14;;;;;;;8.00;3.60;;;8.40;99.90;;;;;;4942699;28;37530;-76
2022/05/04 01:47:40;;;;;;;8.47;4.13;;;8.30;99.90;;;;;;4943057;28;37952;-75
2022/05/04 01:50:07;;;;;;;9.60;4.13;;;8.20;99.90;;;;;;4949260;28;36060;-76
2022/05/04 01:52:33;;;;;;;8.03;4.20;;;8.20;99.90;;;;;;4969816;28;40216;-76
2022/05/04 01:55:00;;;;;;;12.23;4.13;;;8.10;99.90;;;;;;4982450;28;39463;-76
2022/05/04 01:57:27;;;;;;;10.53;4.00;;;8.10;99.90;;;;;;4959901;28;37246;-75
2022/05/04 01:59:53;;;;;;;9.03;4.30;;;8.10;99.90;;;;;;4970606;28;37710;-76
2022/05/04 02:02:23;;;;;;;10.23;3.77;;;8.00;99.90;;;;;;4962184;28;38327;-76
2022/05/04 02:04:52;;;;;;;14.37;5.37;;;8.00;99.90;;;;;;4944710;28;38490;-76
2022/05/04 02:07:21;;;;;;;6.43;3.90;;;8.00;99.90;;;;;;4953877;28;39172;-76
2022/05/04 02:09:47;;;;;;;11.57;3.73;;;7.90;99.90;;;;;;4960140;28;39239;-76
2022/05/04 02:12:13;;;;;;;10.37;4.53;;;7.90;99.90;;;;;;4952074;28;39549;-76
2022/05/04 02:14:39;;;;;;;11.80;4.27;;;7.90;99.90;;;;;;4978939;28;39228;-76
2022/05/04 02:17:05;;;;;;;9.33;3.70;;;7.80;99.90;;;;;;4974914;28;37935;-76
2022/05/04 02:19:32;;;;;;;9.37;3.77;;;7.80;99.90;;;;;;4956532;28;40007;-76
2022/05/04 02:21:58;;;;;;;10.70;4.77;;;7.70;99.90;;;;;;4978812;28;38597;-76
2022/05/04 02:24:27;;;;;;;11.93;4.40;;;7.60;99.90;;;;;;4981510;28;39404;-76
2022/05/04 02:26:53;;;;;;;10.27;3.97;;;7.60;99.90;;;;;;4984796;28;38423;-76
2022/05/04 02:29:25;;;;;;;8.27;3.60;;;7.50;99.90;;;;;;4966828;28;39578;-75
2022/05/04 02:31:56;;;;;;;12.03;4.07;;;7.40;99.90;;;;;;4967966;28;39140;-75
2022/05/04 02:34:22;;;;;;;9.83;4.10;;;7.30;99.90;;;;;;4969421;28;38394;-78
2022/05/04 02:39:35;;;;;;;11.57;5.30;;;7.10;99.90;;;;;;4979948;28;49169;-76
2022/05/04 02:42:01;;;;;;;7.73;3.87;;;7.10;99.90;;;;;;4972979;28;38673;-76
2022/05/04 02:44:27;;;;;;;8.97;4.70;;;7.00;99.90;;;;;;4978350;28;39273;-78
2022/05/04 02:46:53;;;;;;;7.73;4.53;;;6.90;99.90;;;;;;4961020;28;38562;-77
2022/05/04 02:49:19;;;;;;;8.03;4.60;;;6.80;99.90;;;;;;4982556;28;39224;-78
2022/05/04 02:51:46;;;;;;;10.10;4.77;;;6.70;99.90;;;;;;4973376;28;38723;-77
2022/05/04 02:54:12;;;;;;;14.23;4.70;;;6.60;99.90;;;;;;4972230;28;39511;-77
2022/05/04 02:56:38;;;;;;;11.00;5.10;;;6.50;99.90;;;;;;4980334;28;38116;-76
2022/05/04 02:59:05;;;;;;;12.40;4.87;;;6.50;99.90;;;;;;4981865;28;38826;-75
2022/05/04 03:04:18;;;;;;;11.67;5.23;;;6.40;99.90;;;;;;4957409;28;38040;-78
2022/05/04 03:06:44;;;;;;;11.57;5.73;;;6.40;99.90;;;;;;4928391;28;39120;-78
2022/05/04 03:09:11;;;;;;;12.53;5.87;;;6.40;99.90;;;;;;4973337;28;38333;-77
2022/05/04 03:11:56;;;;;;;10.07;5.23;;;6.40;99.90;;;;;;4964202;28;39419;-78
2022/05/04 03:14:27;;;;;;;10.47;5.23;;;6.30;99.90;;;;;;4972156;28;38648;-78
2022/05/04 03:16:55;;;;;;;11.07;5.17;;;6.30;99.90;;;;;;4954567;28;38015;-77
2022/05/04 03:19:22;;;;;;;13.50;6.10;;;6.30;99.90;;;;;;4958192;28;40670;-78
2022/05/04 03:21:49;;;;;;;12.13;5.37;;;6.30;99.90;;;;;;4964619;28;39912;-78
2022/05/04 03:24:15;;;;;;;14.43;5.33;;;6.20;99.90;;;;;;4945542;28;39226;-78
2022/05/04 03:26:42;;;;;;;12.10;5.33;;;6.20;99.90;;;;;;4980893;28;37396;-78
2022/05/04 03:29:09;;;;;;;10.97;5.40;;;6.20;99.90;;;;;;4967440;28;39823;-77
2022/05/04 03:31:35;;;;;;;8.83;4.73;;;6.20;99.90;;;;;;4985587;28;38663;-77
2022/05/04 03:34:02;;;;;;;10.07;6.67;;;6.10;99.90;;;;;;4981817;28;39638;-76
2022/05/04 03:36:29;;;;;;;17.60;5.90;;;6.10;99.90;;;;;;4960603;28;48832;-77
2022/05/04 03:38:55;;;;;;;12.60;6.50;;;6.10;99.90;;;;;;4962966;28;39854;-77
2022/05/04 03:41:24;;;;;;;9.77;5.27;;;6.00;99.90;;;;;;4981843;28;37974;-77
2022/05/04 03:43:50;;;;;;;13.20;6.23;;;6.00;99.90;;;;;;4968529;28;37732;-77
2022/05/04 03:46:19;;;;;;;8.50;6.00;;;5.90;99.90;;;;;;4976819;28;38068;-77
2022/05/04 03:48:48;;;;;;;11.60;5.83;;;5.90;99.90;;;;;;4959212;28;41289;-77
2022/05/04 03:51:16;;;;;;;9.53;6.20;;;5.90;99.90;;;;;;4975577;28;37777;-77
2022/05/04 03:53:42;;;;;;;13.63;6.67;;;5.80;99.90;;;;;;4982172;28;39189;-77
2022/05/04 03:56:08;;;;;;;13.17;6.60;;;5.80;99.90;;;;;;4958034;28;36433;-77
2022/05/04 03:58:34;;;;;;;12.10;6.20;;;5.80;99.90;;;;;;4976401;28;38551;-77
2022/05/04 04:01:01;;;;;;;12.13;6.07;;;5.80;99.90;;;;;;4974498;28;37642;-77
2022/05/04 04:03:27;;;;;;;12.93;6.33;;;5.80;99.90;;;;;;4956800;28;47882;-78
2022/05/04 04:05:53;;;;;;;11.80;5.87;;;5.70;99.90;;;;;;4973534;28;37117;-77
2022/05/04 04:08:20;;;;;;;11.03;6.57;;;5.70;99.90;;;;;;4983780;28;39409;-77
2022/05/04 04:10:46;;;;;;;12.07;6.37;;;5.70;99.90;;;;;;4948088;28;39921;-77
2022/05/04 04:13:13;;;;;;;11.60;6.57;;;5.70;99.90;;;;;;4980155;28;39332;-77
2022/05/04 04:15:39;;;;;;;13.50;6.80;;;5.70;99.90;;;;;;4974064;28;37060;-77
2022/05/04 04:18:06;;;;;;;13.10;6.70;;;5.70;99.90;;;;;;4956465;28;38253;-77
2022/05/04 04:23:17;;;;;;;13.27;6.73;;;5.60;99.90;;;;;;4976714;28;39873;-77
2022/05/04 04:25:46;;;;;;;12.27;6.47;;;5.60;99.90;;;;;;4973419;28;36434;-77
2022/05/04 04:28:12;;;;;;;15.27;6.87;;;5.60;99.90;;;;;;4970072;28;38641;-77
2022/05/04 04:30:39;;;;;;;15.63;6.87;;;5.60;99.90;;;;;;4971097;28;39557;-77
2022/05/04 04:33:06;;;;;;;11.00;7.13;;;5.60;99.90;;;;;;4957485;28;39407;-77
2022/05/04 04:35:41;;;;;;;13.00;6.90;;;5.60;99.90;;;;;;5073428;27;20737;-77
2022/05/04 04:38:08;;;;;;;12.50;6.60;;;5.60;99.90;;;;;;5046631;28;37349;-77
2022/05/04 04:40:34;;;;;;;10.87;6.67;;;5.60;99.90;;;;;;5067804;28;36238;-77
2022/05/04 04:43:03;;;;;;;13.87;7.93;;;5.60;99.90;;;;;;5069516;27;38484;-77
2022/05/04 04:45:30;;;;;;;15.13;7.70;;;5.60;99.90;;;;;;5067563;28;45990;-77
2022/05/04 04:47:57;;;;;;;16.63;6.93;;;5.60;99.90;;;;;;5073023;28;36569;-77
2022/05/04 04:50:23;;;;;;;11.77;7.67;;;5.60;99.90;;;;;;5076251;28;36313;-77
2022/05/04 04:52:53;;;;;;;17.70;8.20;;;5.70;99.90;;;;;;5068481;27;38910;-77
2022/05/04 04:55:22;;;;;;;14.67;8.03;;;5.70;99.90;;;;;;5073106;27;39259;-78
2022/05/04 04:57:48;;;;;;;12.50;8.23;;;5.70;99.90;;;;;;5068613;27;38583;-78
2022/05/04 05:00:15;;;;;;;14.97;8.13;;;5.70;99.90;;;;;;5070065;27;36155;-77
2022/05/04 05:02:41;;;;;;;19.47;7.23;;;5.80;99.90;;;;;;5070350;28;38249;-78
2022/05/04 05:05:08;;;;;;;13.93;7.43;;;5.80;99.90;;;;;;5120560;27;37648;-77
2022/05/04 05:07:35;;;;;;;16.50;8.00;;;5.80;99.90;;;;;;5096866;27;37103;-78
2022/05/04 05:10:01;;;;;;;13.83;8.33;;;5.90;99.90;;;;;;5088168;27;37744;-78
2022/05/04 05:12:27;;;;;;;17.60;8.83;;;6.00;99.90;;;;;;5102041;27;37600;-78
2022/05/04 05:17:38;;;;;;;11.50;8.07;;;6.10;99.90;;;;;;5098331;27;49436;-78
2022/05/04 05:20:04;;;;;;;11.50;8.33;;;6.10;99.90;;;;;;5093966;27;39198;-77
2022/05/04 05:22:31;;;;;;;13.00;8.13;;;6.20;99.90;;;;;;5093230;27;40456;-78
2022/05/04 05:24:57;;;;;;;17.27;10.43;;;6.30;99.90;;;;;;5091399;27;39544;-78
2022/05/04 05:27:28;;;;;;;15.90;9.27;;;6.30;99.90;;;;;;5095042;27;38654;-77
2022/05/04 05:29:54;;;;;;;22.50;8.70;;;6.40;99.90;;;;;;5088021;27;34772;-78
2022/05/04 05:32:20;;;;;;;17.57;9.17;;;6.60;99.90;;;;;;5088125;27;39544;-79
2022/05/04 05:34:47;;;;;;;17.33;9.43;;;6.70;99.90;;;;;;5094851;28;39993;-78
2022/05/04 05:37:13;;;;;;;16.23;8.40;;;6.80;99.90;;;;;;5082894;27;37536;-77
2022/05/04 05:39:43;;;;;;;21.60;8.03;;;7.00;99.90;;;;;;5087454;27;37110;-78
2022/05/04 05:42:09;;;;;;;14.13;7.93;;;7.10;99.90;;;;;;5091784;27;40858;-77
2022/05/04 05:44:35;;;;;;;17.87;8.03;;;7.20;99.90;;;;;;5104024;27;40117;-76
2022/05/04 05:47:02;;;;;;;18.23;7.53;;;7.30;99.90;;;;;;5073146;28;38280;-76
2022/05/04 05:49:28;;;;;;;12.53;7.20;;;7.50;99.90;;;;;;5070608;27;37214;-76
2022/05/04 05:51:57;;;;;;;16.30;7.50;;;7.60;99.90;;;;;;5081091;28;39787;-76
2022/05/04 05:54:24;;;;;;;12.67;6.93;;;7.70;99.90;;;;;;5081184;28;38808;-76
2022/05/04 05:56:51;;;;;;;11.53;6.10;;;7.80;99.90;;;;;;5063030;27;38971;-76
2022/05/04 05:59:20;;;;;;;8.50;5.73;;;7.80;99.90;;;;;;5046298;28;37863;-77
2022/05/04 06:01:46;;;;;;;8.50;5.07;;;7.90;99.90;;;;;;5080134;28;39777;-77
2022/05/04 06:04:13;;;;;;;11.37;4.90;;;7.90;99.90;;;;;;5036560;28;38191;-76
2022/05/04 06:06:39;;;;;;;12.30;5.03;;;8.00;99.90;;;;;;5035110;28;35995;-76
2022/05/04 06:09:05;;;;;;;17.20;5.43;;;8.00;99.90;;;;;;5043217;28;37811;-76
2022/05/04 06:11:31;;;;;;;13.20;5.33;;;8.10;99.90;;;;;;5072972;27;38401;-76
2022/05/04 06:14:03;;;;;;;10.17;5.03;;;8.30;99.90;;;;;;5073901;28;37189;-76
2022/05/04 06:16:32;;;;;;;9.85;4.63;;;8.40;99.90;;;;;;5069078;28;48922;-76
2022/05/04 06:18:58;;;;;;;11.97;4.90;;;8.50;99.90;;;;;;5071053;27;38123;-76
2022/05/04 06:21:24;;;;;;;12.50;5.30;;;8.70;99.90;;;;;;5068396;27;38680;-76
2022/05/04 06:23:50;;;;;;;10.77;4.80;;;8.80;99.90;;;;;;5064849;28;39579;-76
2022/05/04 06:26:20;;;;;;;9.90;5.10;;;8.80;99.90;;;;;;5068208;27;37184;-75
2022/05/04 06:28:47;;;;;;;12.07;4.83;;;9.00;99.90;;;;;;5050201;28;38859;-76
2022/05/04 06:34:07;;;;;;;12.03;5.10;;;9.30;99.90;;;;;;5056537;28;39113;-76
2022/05/04 06:36:34;;;;;;;11.83;5.43;;;9.60;99.90;;;;;;5072998;27;48603;-75
2022/05/04 06:39:00;;;;;;;11.97;4.47;;;9.70;99.90;;;;;;5075284;28;37637;-76
2022/05/04 06:41:27;;;;;;;10.70;3.92;;;9.80;99.90;;;;;;5078987;28;39458;-76
2022/05/04 06:43:53;;;;;;;9.23;4.20;;;9.80;99.90;;;;;;5081427;28;39985;-76
2022/05/04 06:46:20;;;;;;;9.82;4.15;;;10.00;99.90;;;;;;5077821;27;37644;-76
2022/05/04 06:48:46;;;;;;;12.23;4.68;;;10.20;99.90;;;;;;5077237;28;36011;-76
2022/05/04 06:51:12;;;;;;;13.52;4.80;;;10.40;99.90;;;;;;5080177;27;38954;-75
2022/05/04 06:53:38;;;;;;;10.55;4.75;;;10.50;99.90;;;;;;5077260;28;40014;-76
2022/05/04 06:56:05;;;;;;;11.52;5.13;;;10.80;99.90;;;;;;5079881;27;36960;-78
2022/05/04 06:58:31;;;;;;;14.80;5.47;;;10.90;99.90;;;;;;5080267;28;37378;-78
2022/05/04 07:00:57;;;;;;;8.27;4.57;;;11.10;99.90;;;;;;5071367;28;39307;-78
2022/05/04 07:03:23;;;;;;;15.52;5.38;;;11.30;99.90;;;;;;5080204;28;38803;-76
2022/05/04 07:05:50;;;;;;;12.25;5.82;;;11.40;99.90;;;;;;5083721;27;37590;-78
2022/05/04 07:08:18;;;;;;;10.65;5.60;;;11.60;99.90;;;;;;5076323;28;36824;-78
2022/05/04 07:10:46;;;;;;;16.17;5.68;;;11.70;99.90;;;;;;5082667;27;38399;-77
2022/05/04 07:13:13;;;;;;;11.43;5.72;;;11.60;99.90;;;;;;5080794;28;37946;-78
2022/05/04 07:15:44;;;;;;;13.27;5.50;;;11.90;99.90;;;;;;5078928;27;38476;-76
2022/05/04 07:18:10;;;;;;;9.05;5.72;;;11.90;99.90;;;;;;5069592;27;37132;-77
2022/05/04 07:20:36;;;;;;;14.65;6.28;;;12.00;99.90;;;;;;5071973;27;39543;-78
2022/05/04 07:23:02;;;;;;;13.98;5.65;;;12.20;99.90;;;;;;5083020;27;38693;-77
2022/05/04 07:25:28;;;;;;;12.32;6.07;;;12.30;99.90;;;;;;5076237;27;37653;-77
2022/05/04 07:27:54;;;;;;;12.40;5.90;;;12.50;99.90;;;;;;5090157;27;37252;-77
2022/05/04 07:30:20;;;;;;;11.77;6.20;;;12.90;99.90;;;;;;5074370;28;37806;-80
2022/05/04 07:32:46;;;;;;;16.33;6.57;;;13.20;99.90;;;;;;5074863;28;38409;-80
2022/05/04 07:35:13;;;;;;;13.73;6.47;;;13.20;99.90;;;;;;5083505;27;38549;-80
2022/05/04 07:37:41;;;;;;;13.27;5.82;;;13.50;99.90;;;;;;5083679;28;37139;-80
2022/05/04 07:42:55;;;;;;;10.77;6.75;;;13.70;99.90;;;;;;5083127;28;39103;-81
2022/05/04 07:45:21;;;;;;;8.50;5.82;;;13.60;99.90;;;;;;5069955;28;37081;-80
2022/05/04 07:47:48;;;;;;;10.13;5.57;;;13.50;99.90;;;;;;5078218;28;36429;-80
2022/05/04 07:50:14;;;;;;;11.70;5.70;;;13.70;99.90;;;;;;5069665;27;38561;-80
2022/05/04 07:52:41;;;;;;;13.90;6.68;;;14.00;99.90;;;;;;5094097;27;37338;-79
2022/05/04 07:55:10;;;;;;;14.27;6.20;;;14.20;99.90;;;;;;5084307;27;38155;-77
2022/05/04 07:57:36;;;;;;;12.43;5.65;;;14.50;99.90;;;;;;5089560;28;36370;-79
2022/05/04 08:05:40;;;;;;;10.30;5.97;;;14.70;99.90;;;;;;5078803;28;49444;-77
2022/05/04 08:08:07;;;;;;;10.15;5.47;;;14.60;99.90;;;;;;5082194;28;37631;-80
2022/05/04 08:10:33;;;;;;;12.18;5.75;;;14.60;99.90;;;;;;5083889;28;38101;-78
2022/05/04 08:12:59;;;;;;;13.55;6.15;;;14.70;99.90;;;;;;5079385;28;40657;-78
2022/05/04 08:15:26;;;;;;;12.18;6.32;;;14.60;99.90;;;;;;5082364;27;38246;-80
2022/05/04 08:17:52;;;;;;;12.60;6.72;;;14.20;99.90;;;;;;5080766;28;36698;-79
2022/05/04 08:20:21;;;;;;;13.32;5.30;;;14.10;99.90;;;;;;5068664;28;38466;-79
2022/05/04 08:22:47;;;;;;;13.05;5.93;;;14.10;99.90;;;;;;5071781;28;38115;-80
2022/05/04 08:25:13;;;;;;;14.02;6.28;;;14.30;99.90;;;;;;5070082;27;37277;-79
2022/05/04 08:27:39;;;;;;;11.98;6.30;;;14.70;99.90;;;;;;5071509;28;37114;-79
2022/05/04 08:30:09;;;;;;;13.35;5.78;;;14.70;99.90;;;;;;5072053;28;38044;-80
2022/05/04 08:32:35;;;;;;;13.07;5.38;;;14.80;99.90;;;;;;5075293;28;38754;-81
2022/05/04 08:35:05;;;;;;;12.23;5.70;;;14.80;99.90;;;;;;5078249;27;37989;-77
2022/05/04 08:37:31;;;;;;;12.98;5.47;;;14.60;99.90;;;;;;5080703;28;38068;-78
2022/05/04 08:39:57;;;;;;;9.63;4.53;;;14.60;99.90;;;;;;5055436;28;39190;-81
2022/05/04 08:42:24;;;;;;;11.93;6.25;;;15.00;99.90;;;;;;5075578;28;37046;-81
2022/05/04 08:44:56;;;;;;;12.75;5.90;;;15.10;99.90;;;;;;5084997;28;37089;-81
2022/05/04 08:47:23;;;;;;;12.18;6.10;;;15.10;99.90;;;;;;5073365;28;37120;-80
2022/05/04 08:49:49;;;;;;;11.57;5.55;;;15.20;99.90;;;;;;5076388;28;38183;-80
2022/05/04 08:52:15;;;;;;;13.75;5.72;;;15.50;99.90;;;;;;5077906;28;38259;-80
2022/05/04 08:54:44;;;;;;;16.95;6.28;;;15.70;99.90;;;;;;5077754;28;36992;-79
2022/05/04 08:57:11;;;;;;;10.63;5.03;;;15.40;99.90;;;;;;5074822;27;37143;-81
2022/05/04 08:59:37;;;;;;;11.10;5.32;;;15.00;99.90;;;;;;5079951;28;38819;-80
2022/05/04 09:02:06;;;;;;;10.27;5.00;;;15.20;99.90;;;;;;5075097;28;38941;-79
2022/05/04 09:04:32;;;;;;;8.63;5.38;;;15.50;99.90;;;;;;5064669;28;37491;-82
2022/05/04 09:07:01;;;;;;;16.50;5.40;;;15.60;99.90;;;;;;5064062;28;37005;-81
2022/05/04 09:09:28;;;;;;;10.35;6.13;;;15.60;99.90;;;;;;5070483;28;37389;-81
2022/05/04 09:11:54;;;;;;;10.10;5.25;;;15.80;99.90;;;;;;5069182;28;38424;-81
2022/05/04 09:14:25;;;;;;;13.10;5.35;;;15.80;99.90;;;;;;5070895;27;38452;-81
2022/05/04 09:16:52;;;;;;;15.80;5.80;;;16.00;99.90;;;;;;5064602;28;34461;-80
2022/05/04 09:19:19;;;;;;;9.90;5.65;;;16.30;99.90;;;;;;5071156;28;39262;-80
2022/05/04 09:21:47;;;;;;;9.90;5.72;;;16.60;99.90;;;;;;5065271;28;39675;-81
2022/05/04 09:24:26;;;;;;;11.77;5.40;;;16.40;99.90;;;;;;5071449;28;36698;-81
2022/05/04 09:26:54;;;;;;;11.57;4.97;;;16.90;99.90;;;;;;5083272;28;37680;-80
2022/05/04 09:29:20;;;;;;;11.57;5.95;;;17.10;99.90;;;;;;5064169;27;37567;-80
2022/05/04 09:31:47;;;;;;;14.82;6.43;;;17.30;99.90;;;;;;5076013;28;37155;-79
2022/05/04 09:34:13;;;;;;;9.90;5.65;;;16.80;99.90;;;;;;5074965;27;38748;-80
2022/05/04 09:45:12;;;;;;;10.80;5.70;;;16.70;99.90;;;;;;5086682;27;38755;-81
2022/05/04 09:47:56;;;;;;;13.73;6.30;;;16.20;99.90;;;;;;5080951;28;47123;-80
2022/05/04 09:50:27;;;;;;;14.55;6.40;;;16.40;99.90;;;;;;5085709;27;39816;-80
2022/05/04 09:52:57;;;;;;;14.38;6.00;;;16.80;99.90;;;;;;5077758;27;38224;-81
2022/05/04 09:55:26;;;;;;;9.30;5.53;;;17.10;99.90;;;;;;5085392;27;38372;-80
2022/05/04 09:57:54;;;;;;;17.10;5.65;;;17.20;99.90;;;;;;5074795;28;38373;-79
2022/05/04 10:00:24;;;;;;;9.27;5.25;;;17.50;99.90;;;;;;5080494;28;40122;-81
2022/05/04 10:02:53;;;;;;;12.48;5.93;;;17.40;99.90;;;;;;5079168;28;38077;-81
2022/05/04 10:05:20;;;;;;;11.07;4.80;;;17.50;99.90;;;;;;5089760;27;38530;-81
2022/05/04 10:07:49;;;;;;;8.45;4.88;;;17.80;99.90;;;;;;5082087;28;37378;-82
2022/05/04 10:10:20;;;;;;;12.55;5.78;;;18.40;99.90;;;;;;5081227;28;39650;-81
2022/05/04 10:12:47;;;;;;;12.23;6.28;;;18.40;99.90;;;;;;5072498;28;39142;-82
2022/05/04 10:15:16;;;;;;;10.80;5.18;;;18.80;99.90;;;;;;5073811;28;38611;-79
2022/05/04 10:18:13;;;;;;;11.20;6.13;;;19.00;99.90;;;;;;5075905;28;36945;-79
2022/05/04 10:20:54;;;;;;;15.27;7.70;;;19.00;99.90;;;;;;5075762;28;48401;-82
2022/05/04 10:23:23;;;;;;;17.13;7.18;;;16.80;99.90;;;;;;5068310;28;38582;-80
2022/05/04 10:25:53;;;;;;;14.52;6.70;;;16.60;99.90;;;;;;5079093;28;39354;-82
2022/05/04 10:28:19;;;;;;;13.70;6.45;;;17.20;99.90;;;;;;5080100;27;37153;-82
2022/05/04 10:30:56;;;;;;;9.98;6.60;;;17.40;99.90;;;;;;5074419;28;38594;-85
2022/05/04 10:33:25;;;;;;;11.90;5.85;;;17.50;99.90;;;;;;5070844;27;39040;-82
2022/05/04 10:35:52;;;;;;;12.18;5.85;;;16.80;99.90;;;;;;5073960;28;37736;-81
2022/05/04 10:38:27;;;;;;;16.58;5.82;;;17.00;99.90;;;;;;5076978;27;37676;-81
2022/05/04 10:41:06;;;;;;;9.48;5.05;;;17.90;99.90;;;;;;5064413;28;39187;-80
2022/05/04 10:43:36;;;;;;;13.45;5.53;;;18.70;99.90;;;;;;5064910;28;47212;-83
2022/05/04 10:46:07;;;;;;;8.52;4.63;;;19.30;99.90;;;;;;5057246;28;36864;-82
2022/05/04 10:48:34;;;;;;;12.70;6.30;;;19.20;99.90;;;;;;5058367;28;36300;-83
2022/05/04 10:51:18;;;;;;;13.00;5.70;;;18.10;99.90;;;;;;5088751;27;39591;-83
2022/05/04 10:53:58;;;;;;;8.82;5.47;;;17.30;99.90;;;;;;5057637;28;47456;-82
2022/05/04 10:56:36;;;;;;;9.80;5.20;;;18.20;99.90;;;;;;5064295;28;37669;-82
2022/05/04 10:59:03;;;;;;;11.27;6.25;;;18.70;99.90;;;;;;5067879;28;36612;-80
2022/05/04 11:01:34;;;;;;;12.35;5.60;;;19.30;99.90;;;;;;5096780;27;39823;-82
2022/05/04 11:04:06;;;;;;;9.20;5.93;;;19.70;99.90;;;;;;5063160;27;39285;-83
2022/05/04 11:06:33;;;;;;;;;;;19.90;99.90;;;;;;5064891;28;48599;-80
2022/05/04 11:09:08;;;;;;;12.23;5.78;;;19.80;99.90;;;;;;5060048;28;38290;-80
2022/05/04 11:11:36;;;;;;;14.15;6.30;;;20.30;99.90;;;;;;5082191;27;47666;-79
2022/05/04 11:14:04;;;;;;;10.50;5.90;;;20.60;99.90;;;;;;5073251;28;40067;-78
2022/05/04 11:16:31;;;;;;;12.10;6.50;;;20.70;99.90;;;;;;5059700;28;38038;-79
2022/05/04 11:19:02;;;;;;;12.68;6.30;;;20.90;99.90;;;;;;5066145;27;36929;-79
2022/05/04 11:21:29;;;;;;;12.20;6.18;;;21.10;99.90;;;;;;5063635;28;47024;-79
2022/05/04 11:24:07;;;;;;;7.72;5.05;;;20.80;99.90;;;;;;5068659;28;39113;-79
2022/05/04 11:26:50;;;;;;;10.38;5.80;;;20.80;99.90;;;;;;5073644;28;48931;-80
2022/05/04 11:29:20;;;;;;;8.13;5.22;;;20.80;99.90;;;;;;5097501;27;39010;-79
2022/05/04 11:31:54;;;;;;;8.68;4.35;;;20.60;99.90;;;;;;5077716;28;41202;-79
2022/05/04 11:34:23;;;;;;;13.70;5.57;;;20.60;99.90;;;;;;5078696;28;38166;-78
2022/05/04 11:36:51;;;;;;;12.23;5.72;;;20.70;99.90;;;;;;5086148;28;38007;-79
2022/05/04 11:39:26;;;;;;;20.35;7.00;;;20.90;99.90;;;;;;5087152;27;38274;-79
2022/05/04 11:41:55;;;;;;;21.40;7.40;;;21.00;99.90;;;;;;5089856;27;38035;-79
2022/05/04 11:44:24;;;;;;;10.60;6.47;;;21.10;99.90;;;;;;5055283;27;37903;-79
2022/05/04 11:46:55;;;;;;;8.65;6.47;;;20.90;99.90;;;;;;5056086;28;36512;-79
2022/05/04 11:49:23;;;;;;;12.73;7.50;;;20.70;99.90;;;;;;5067948;27;36682;-78
2022/05/04 11:51:52;;;;;;;13.52;7.80;;;21.10;99.90;;;;;;5070343;28;37498;-79
2022/05/04 11:54:21;;;;;;;11.50;7.15;;;21.00;99.90;;;;;;5088372;27;38712;-79
2022/05/04 11:56:47;;;;;;;12.25;7.88;;;20.80;99.90;;;;;;5076581;28;38151;-79
2022/05/04 11:59:14;;;;;;;10.02;6.82;;;20.90;99.90;;;;;;5068806;27;37022;-84
2022/05/04 12:01:40;;;;;;;13.05;6.78;;;21.10;99.90;;;;;;5052583;28;38630;-79
2022/05/04 12:04:09;;;;;;;12.90;7.65;;;21.30;99.90;;;;;;5070630;28;38957;-79
2022/05/04 12:06:36;;;;;;;9.55;7.22;;;21.80;99.90;;;;;;5075408;28;37209;-79
2022/05/04 12:09:03;;;;;;;14.10;8.65;;;21.50;99.90;;;;;;5072380;28;39381;-78
2022/05/04 12:11:30;;;;;;;12.60;7.88;;;21.20;99.90;;;;;;5077100;28;47885;-80
2022/05/04 12:13:57;;;;;;;15.75;7.20;;;20.70;99.90;;;;;;5078941;28;38732;-79
2022/05/04 12:16:24;;;;;;;10.80;6.20;;;20.60;99.90;;;;;;5089301;27;38504;-79
2022/05/04 12:18:50;;;;;;;13.48;7.25;;;20.70;99.90;;;;;;5074974;28;36184;-79
2022/05/04 12:21:22;;;;;;;14.82;7.22;;;20.80;99.90;;;;;;5079021;28;38540;-79
2022/05/04 12:23:55;;;;;;;9.68;6.38;;;20.40;99.90;;;;;;5089134;27;39146;-78
2022/05/04 12:26:22;;;;;;;16.58;7.20;;;21.00;99.90;;;;;;5074174;28;38809;-79
2022/05/04 12:34:25;;;;;;;13.55;5.80;;;21.50;99.90;;;;;;5066101;28;39596;-80
2022/05/04 12:36:51;;;;;;;11.13;6.10;;;21.00;99.90;;;;;;5057571;28;38420;-79
2022/05/04 12:39:21;;;;;;;9.50;5.47;;;20.90;99.90;;;;;;5059457;28;37840;-78
2022/05/04 12:41:48;;;;;;;12.43;5.57;;;20.20;99.90;;;;;;5074760;27;38787;-78
2022/05/04 12:44:15;;;;;;;10.95;5.70;;;20.00;99.90;;;;;;5052163;28;38369;-79
2022/05/04 12:46:51;;;;;;;9.45;5.20;;;20.40;99.90;;;;;;5054876;28;38961;-79
2022/05/04 12:49:20;;;;;;;12.30;5.43;;;21.00;99.90;;;;;;5080461;28;37673;-78
2022/05/04 12:51:47;;;;;;;10.27;5.57;;;20.90;99.90;;;;;;5048571;28;40026;-79
2022/05/04 12:54:18;;;;;;;11.82;5.13;;;20.90;99.90;;;;;;5076539;27;38176;-78
2022/05/04 12:56:47;;;;;;;7.63;5.05;;;20.80;99.90;;;;;;5089391;27;38753;-79
2022/05/04 12:59:17;;;;;;;9.68;5.30;;;20.50;99.90;;;;;;5064114;28;38122;-79
2022/05/04 13:01:44;;;;;;;7.43;4.88;;;20.50;99.90;;;;;;5072986;28;40633;-78
2022/05/04 13:04:10;;;;;;;8.10;5.05;;;20.40;99.90;;;;;;5079276;28;38512;-79
2022/05/04 13:06:36;;;;;;;10.43;4.47;;;20.20;99.90;;;;;;5092321;27;38529;-82
2022/05/04 13:09:03;;;;;;;9.75;4.55;;;20.50;99.90;;;;;;5077706;27;38018;-79
2022/05/04 13:11:30;;;;;;;11.73;4.57;;;20.40;99.90;;;;;;5081027;28;40469;-78
2022/05/04 13:13:56;;;;;;;8.43;4.20;;;20.30;99.90;;;;;;5078165;28;38067;-80
2022/05/04 13:16:22;;;;;;;13.20;4.22;;;20.30;99.90;;;;;;5070971;28;38133;-80
2022/05/04 13:18:48;;;;;;;8.63;4.25;;;19.80;99.90;;;;;;5083546;27;38308;-80
2022/05/04 13:21:15;;;;;;;8.18;3.90;;;19.70;99.90;;;;;;5084712;27;39303;-81
2022/05/04 13:23:42;;;;;;;9.77;4.05;;;19.70;99.90;;;;;;5083140;27;39305;-80
2022/05/04 13:26:09;;;;;;;15.02;3.92;;;19.70;99.90;;;;;;5103024;28;39225;-80
2022/05/04 13:28:36;;;;;;;9.98;4.18;;;20.00;99.90;;;;;;5087774;28;38477;-81